Fitzgerald, Arkansas
Current Conditions -  °F | °C
As of 4:56 AM on Wednesday 26 Nov 2014 (Local Time) from KM19 Reporting Station
Clear Clear  
Wind Chill: 27°   Ceiling: Unl
Heat Index: 32°   Visibility: 10mi
Dew Point: 29°   Wind: 5mph
Humidity: 89%   Direction: 150°SSE
Pressure: 30.12"   Gusts: NA
Location:  35.5678°N, 91.2073°W
Report Text: KM19 261056Z AUTO 15004KT 10SM CLR 00/M02 A3012 RMK AO2 T00001016 SLP200
Loading
Personal Weather Stations






























Interactive Weather Map New forecast layout! Learn more

10-Day Weather Forecast

Advertisements
Track Severe Weather on mobile